As Olivia — DYQC — position and weather

sailwx.info

Track history (hours):
 
Tides and Currents Weather Stations Pressure Air Temp Water Temp Dewpoint Dewpoint Depression Visibility Wind Speed Wind Dir Waves Ship Positions

As Olivia

Last reported at 2016-Jun-27 16:17 UTC. Time now 2016-Jun-30 21:27 UTC.
Position N 33°04' W 009°19'.

Length 146 m; draft 10 m.

Type: Tanker. MMSI: 548767000.

Date/timePositionNaut miles runAvg speedWind from/ knotsBaromVisibWave heightAir tempDewpointWater temp
2016-Jun-27 16:17N 33°04' W 009°19'  
2016-Jun-24 17:25N 33°09' W 008°42'0 0.0
2016-Jun-23 21:10N 33°09' W 008°42'0 0.0
2016-Jun-23 20:28N 33°09' W 008°42'0 0.0
2016-Jun-23 18:31N 33°09' W 008°42'128 9.0
2016-Jun-23 04:22N 35°03' W 007°31'1213.4
2016-Jun-23 03:29N 35°11' W 007°20'4213.2
2016-Jun-23 00:18N 35°38' W 006°41'1413.3
2016-Jun-22 23:15N 35°47' W 006°27'1013.6
2016-Jun-22 22:33N 35°53' W 006°18'3812.1
2016-Jun-22 19:25N 35°59' W 005°32'1011.3
2016-Jun-22 18:33N 36°01' W 005°20'20712.9
2016-Jun-22 02:30N 36°28' W 001°05'1313.6
2016-Jun-22 01:33N 36°32' W 000°50'1313.3
2016-Jun-22 00:33N 36°35' W 000°34'1913.1
2016-Jun-21 23:07N 36°40' W 000°11'713.4
2016-Jun-21 22:33N 36°43' W 000°02'1413.7
2016-Jun-21 21:33N 36°46' E 000°14'3014.2
2016-Jun-21 19:28N 36°55' E 000°50'61112.4
2016-Jun-19 18:21N 36°41' E 013°33'1012.1
2016-Jun-19 17:33N 36°38' E 013°44'1212.1
2016-Jun-19 16:33N 36°34' E 013°58'1212.1
2016-Jun-19 15:33N 36°31' E 014°13'1211.7
2016-Jun-19 14:33N 36°27' E 014°27'1312.5
2016-Jun-19 13:33N 36°23' E 014°42'1313.2
2016-Jun-19 12:33N 36°19' E 014°57'1313.4
2016-Jun-19 11:33N 36°15' E 015°13'  
Track history (hours):
 
Tides and Currents Weather Stations Pressure Air Temp Water Temp Dewpoint Dewpoint Depression Visibility Wind Speed Wind Dir Waves Ship Positions

As Olivia

Last reported at 2016-Jun-27 16:17 UTC. Time now 2016-Jun-30 21:27 UTC.
Position N 33°04' W 009°19'.

Length 146 m; draft 10 m.

Type: Tanker. MMSI: 548767000.

Date/timePositionNaut miles runAvg speedWind from/ knotsBaromVisibWave heightAir tempDewpointWater temp
2016-Jun-27 16:17N 33°04' W 009°19'  
2016-Jun-24 17:25N 33°09' W 008°42'0 0.0
2016-Jun-23 21:10N 33°09' W 008°42'0 0.0
2016-Jun-23 20:28N 33°09' W 008°42'0 0.0
2016-Jun-23 18:31N 33°09' W 008°42'128 9.0
2016-Jun-23 04:22N 35°03' W 007°31'1213.4
2016-Jun-23 03:29N 35°11' W 007°20'4213.2
2016-Jun-23 00:18N 35°38' W 006°41'1413.3
2016-Jun-22 23:15N 35°47' W 006°27'1013.6
2016-Jun-22 22:33N 35°53' W 006°18'3812.1
2016-Jun-22 19:25N 35°59' W 005°32'1011.3
2016-Jun-22 18:33N 36°01' W 005°20'20712.9
2016-Jun-22 02:30N 36°28' W 001°05'1313.6
2016-Jun-22 01:33N 36°32' W 000°50'1313.3
2016-Jun-22 00:33N 36°35' W 000°34'1913.1
2016-Jun-21 23:07N 36°40' W 000°11'713.4
2016-Jun-21 22:33N 36°43' W 000°02'1413.7
2016-Jun-21 21:33N 36°46' E 000°14'3014.2
2016-Jun-21 19:28N 36°55' E 000°50'61112.4
2016-Jun-19 18:21N 36°41' E 013°33'1012.1
2016-Jun-19 17:33N 36°38' E 013°44'1212.1
2016-Jun-19 16:33N 36°34' E 013°58'1212.1
2016-Jun-19 15:33N 36°31' E 014°13'1211.7
2016-Jun-19 14:33N 36°27' E 014°27'1312.5
2016-Jun-19 13:33N 36°23' E 014°42'1313.2
2016-Jun-19 12:33N 36°19' E 014°57'1313.4
2016-Jun-19 11:33N 36°15' E 015°13'  

Dump ship's entire track history